Tiempo atmosférico en la estación meteorológica de Alcuescar, Cáceres (460 m.)



Fecha
DESCASC
Temp. máxima en grados centígrados (hora)
DESCASC
Temp. mínima en grados centígrados (hora)
DESCASC
Temp. media en grados centígrados
DESCASC
Racha de viento máxima en m/sg (hora)
DESCASC
Velocidad máxima media en intervalos de 10 minutos(hora)
DESCASC
Precipitaciones diarias en mm
DESCASC
Precipitaciones de 00:00 a 06:00 en mm
DESCASC
Precipitaciones de 06:00 a 12:00 en mm
DESCASC
Precipitaciones de 12:00 a 18:00 en mm
DESCASC
Precipitaciones de 18:00 a 24:00 en mm
DESCASC
25-01-2020 10.6 (15:00) 5.8 (23:59) 8.2 10.28 (01:40) 5 (01:40) 12.6 9.2 0 1.4 2
24-01-2020 10.5 (14:50) 7.1 (05:40) 8.8 11.39 (23:10) 6.67 (23:10) 8.8 1.2 0.2 0 7.4
23-01-2020 8.4 (16:20) 6.3 (02:30) 7.3 11.67 (06:20) 6.39 (06:20) 12.8 5.8 2.6 2.4 2
22-01-2020 9.2 (17:10) 5.8 (00:00) 7.5 9.44 (09:30) 5.28 (09:30) 4.4 0 2.8 1.6 0
21-01-2020 10.9 (14:20) 4.3 (00:00) 7.6 12.22 (06:50) 7.78 (10:10) 0 0 0 0 0
20-01-2020 7.6 (15:20) 3.1 (00:00) 5.3 16.11 (13:40) 10.56 (13:50) 0 0 0 0 0
19-01-2020 12.5 (14:20) 3.4 (00:00) 8 11.67 (15:50) 7.5 (12:50) 0 0 0 0 0
18-01-2020 14.8 (17:50) 7.9 (00:00) 11.4 13.89 (21:30) 8.61 (21:10) 6.8 0.4 6.2 0.2 0
17-01-2020 13.7 (14:50) 8.8 (00:00) 11.3 6.94 (00:30) 3.89 (00:20) 0 0 0 0 0
16-01-2020 16.2 (15:40) 7.3 (00:00) 11.8 10.28 (21:10) 6.39 (16:00) 0.4 0 0.2 0 0.2
15-01-2020 12.2 (15:50) 5.2 (00:00) 8.7 10.56 (11:50) 6.39 (12:20) 0 0 0 0 0
14-01-2020 10.3 (14:20) 2.7 (00:00) 6.5 8.61 (13:00) 6.11 (10:50) 0 0 0 0 0
13-01-2020 11.6 (14:40) 2.5 (00:00) 7.1 6.39 (11:30) 4.72 (11:40) 0 0 0 0 0
12-01-2020 13 (16:30) 2.1 (00:00) 7.5 4.44 (11:20) 3.33 (11:40) 0 0 0 0 0
11-01-2020 13.7 (17:00) 0.6 (00:00) 7.1 4.72 (13:10) 3.06 (12:50) 0 0 0 0 0
10-01-2020 12.3 (16:10) 1.4 (00:00) 6.9 7.5 (15:50) 4.17 (06:10) 0 0 0 0 0
09-01-2020 13.4 (15:20) 1.2 (00:00) 7.3 4.17 (19:00) 2.78 (23:10) 0.2 0.2 0 0 0
08-01-2020 14.4 (16:20) 3.8 (00:00) 9.1 3.89 (07:50) 2.78 (07:50) 0.2 0.2 0 0 0
07-01-2020 15.6 (16:30) 2.5 (00:00) 9.1 3.61 (09:20) 2.78 (09:20) 0 0 0 0 0
06-01-2020 14.7 (15:50) 1.5 (00:00) 8.1 3.33 (19:50) 2.5 (04:40) 0 0 0 0 0
05-01-2020 13.8 (15:50) 0.9 (00:00) 7.4 3.61 (17:30) 2.22 (17:30) 0.2 0 0.2 0 0
04-01-2020 11 (16:50) 1.1 (00:00) 6.1 4.44 (07:50) 2.78 (07:50) 0 0 0 0 0
03-01-2020 12.3 (16:10) 4.1 (00:00) 8.2 6.11 (14:50) 3.61 (13:30) 0 0 0 0 0
02-01-2020 15 (14:50) 4.7 (00:00) 9.8 6.11 (07:50) 4.17 (05:50) 0.2 0.2 0 0 0
01-01-2020 15.7 (16:20) 4.6 (00:00) 10.1 5.28 (07:50) 4.44 (07:10) 0 0 0 0 0
31-12-2019 14.9 (14:30) 3.7 (00:00) 9.3 5.83 (11:00) 4.17 (11:10) 0 0 0 0 0
30-12-2019 17.1 (15:40) 5.7 (00:00) 11.4 7.22 (04:10) 5.56 (04:10) 0 0 0 0 0
29-12-2019 17.8 (15:20) 6.8 (00:00) 12.3 6.11 (10:00) 5 (10:00) 0 0 0 0 0
28-12-2019 20.2 (16:30) 4 (00:00) 12.1 5.28 (19:40) 3.06 (13:40) 0 0 0 0 0

Gráficas

Temp. máximas Temp. mínimas Temp. medias Precipitaciones Rachas de viento máximas Velocidades máximas media en intervalos de 10 minutos

Datos horarios

Fecha y hora oficial Temperatura (ºC) Velocidad del viento (km/h) Dirección del viento Racha (km/h) Dirección de racha Precipitación (mm) Presión (hPa) Tendencia (hPa) Humedad (%)
2020-01-26 23:00:00 6.4 6 Sudeste 10 Sudeste 0 -- -- 98
2020-01-26 22:00:00 7.4 5 Sudeste 9 Sudeste 0 -- -- 96
2020-01-26 21:00:00 7.3 6 Sudeste 10 Sudeste 0 -- -- 94
2020-01-26 20:00:00 8.4 0 Calma 9 Sudoeste 0 -- -- 92
2020-01-26 19:00:00 8.9 5 Sudoeste 11 Oeste 0 -- -- 87
2020-01-26 18:00:00 10.2 7 Sudoeste 18 Sur 0 -- -- 81
2020-01-26 17:00:00 11.4 10 Sudoeste 18 Oeste 0 -- -- 71
2020-01-26 16:00:00 12 8 Oeste 14 Oeste 0 -- -- 67
2020-01-26 15:00:00 12.1 8 Sur 18 Sudoeste 0 -- -- 70
2020-01-26 14:00:00 10.7 9 Sudeste 15 Sudeste 0 -- -- 85
2020-01-26 13:00:00 9.6 6 Sudoeste 13 Sudoeste 0 -- -- 82
2020-01-26 12:00:00 8.9 5 Noroeste 11 Noroeste 0 -- -- 81
2020-01-26 11:00:00 7.8 2 Noroeste 5 Noroeste 0 -- -- 86
2020-01-26 10:00:00 5.9 0 Calma 8 Sudoeste 0 -- -- 100
2020-01-26 09:00:00 4.5 4 Sudoeste 5 Sudoeste 0 -- -- 100
2020-01-26 08:00:00 4.6 3 Sudoeste -- -- 0 -- -- 100
2020-01-26 07:00:00 4.5 3 Noroeste 5 Oeste 0 -- -- 100
2020-01-26 06:00:00 4.2 5 Oeste -- -- 0 -- -- 100
2020-01-26 05:00:00 5.2 4 Oeste 6 Oeste 0 -- -- 100
2020-01-26 04:00:00 5.4 4 Oeste 5 Noroeste 0 -- -- 100
2020-01-26 03:00:00 5.6 0 Calma 5 Oeste 0 -- -- 100
2020-01-26 02:00:00 5.1 4 Noroeste 7 Noroeste 0 -- -- 100
2020-01-26 01:00:00 5.6 4 Noroeste 11 Oeste 0.2 -- -- 99
2020-01-26 00:00:00 5.8 5 Oeste 9 Oeste 0 -- -- 99
2020-01-25 23:00:00 6.9 5 Oeste 6 Sudoeste 0 -- -- 99
2020-01-25 22:00:00 7.6 5 Oeste 6 Oeste 0 -- -- 98
2020-01-25 21:00:00 8.3 0 Calma 8 Noroeste 0 -- -- 98
2020-01-25 20:00:00 8.6 3 Noroeste 12 Oeste 1.8 -- -- 98
2020-01-25 19:00:00 8.7 6 Noroeste 9 Noroeste 0.2 -- -- 97
2020-01-25 18:00:00 9.6 0 Calma 17 Oeste 1 -- -- 94
2020-01-25 17:00:00 10.3 3 Este 8 Sudeste 0 -- -- 88
2020-01-25 16:00:00 10.3 5 Sudeste 8 Sudeste 0.4 -- -- 91
2020-01-25 15:00:00 10.6 5 Sudeste 10 Sudeste 0 -- -- 90
2020-01-25 14:00:00 10.3 4 Sudeste 14 Sudeste 0 -- -- 90
2020-01-25 13:00:00 9.7 7 Sudeste 15 Este 0 -- -- 95
2020-01-25 12:00:00 9.1 9 Sudeste 19 Sudeste 0 -- -- 100
2020-01-25 11:00:00 9.2 10 Sudeste 17 Sudeste 0 -- -- 100
2020-01-25 10:00:00 7.4 12 Sudeste 18 Sudeste 0 -- -- 100
2020-01-25 09:00:00 6.7 11 Sudeste 16 Sudeste 0 -- -- 100
2020-01-25 08:00:00 6.2 10 Sudeste 18 Sudeste 0 -- -- 100
2020-01-25 07:00:00 6.6 10 Sudeste 18 Sudeste 0 -- -- 100
2020-01-25 06:00:00 7.5 12 Sudeste 19 Sudeste 0.2 -- -- 100
2020-01-25 05:00:00 7.9 10 Sudeste 19 Sudeste 0.2 -- -- 100
2020-01-25 04:00:00 7.9 11 Sudeste 20 Sudeste 1.6 -- -- 100
2020-01-25 03:00:00 7.9 15 Sudeste 27 Sudeste 1.4 -- -- 100
2020-01-25 02:00:00 7.9 15 Sudeste 37 Este 2.6 -- -- 99
2020-01-25 01:00:00 7.7 10 Este 26 Este 3.2 -- -- 98
2020-01-25 00:00:00 7.6 17 Este 41 Este 2.8 -- -- 98
2020-01-24 23:00:00 8.3 18 Este 36 Este 2 -- -- 99
2020-01-24 22:00:00 8.3 15 Este 26 Este 1.8 -- -- 98
2020-01-24 21:00:00 8.5 15 Sudeste 35 Este 0.8 -- -- 97
2020-01-24 20:00:00 9.9 12 Este 21 Este 0 -- -- 84
2020-01-24 19:00:00 9.1 6 Nordeste 10 Este 0 -- -- 90
2020-01-24 18:00:00 9.7 5 Nordeste 15 Este 0 -- -- 89
2020-01-24 17:00:00 10.2 8 Este 18 Este 0 -- -- 85
2020-01-24 16:00:00 10.2 12 Este 21 Este 0 -- -- 86
2020-01-24 15:00:00 10.4 14 Este 23 Sudeste 0 -- -- 86
2020-01-24 14:00:00 10 13 Este 28 Este 0 -- -- 90
2020-01-24 13:00:00 9.2 14 Sudeste 25 Este 0 -- -- 93
2020-01-24 12:00:00 8.6 13 Sudeste 24 Este 0 -- -- 99
2020-01-24 11:00:00 7.9 15 Este 22 Sudeste 0 -- -- 100
2020-01-24 10:00:00 7.4 13 Sudeste 21 Este 0.2 -- -- 100
2020-01-24 09:00:00 7.2 10 Sudeste 16 Sudeste 0 -- -- 100
2020-01-24 08:00:00 7.3 6 Sudeste 18 Sudeste 0 -- -- 100
2020-01-24 07:00:00 7.2 11 Sudeste 20 Sudeste 0 -- -- 100
2020-01-24 06:00:00 7.2 13 Sudeste 21 Sudeste 0 -- -- 100
2020-01-24 05:00:00 7.2 10 Sudeste 22 Sudeste 0.8 -- -- 100
2020-01-24 04:00:00 7.3 13 Sudeste 23 Este 0.2 -- -- 100
2020-01-24 03:00:00 7.4 13 Sudeste 23 Este 0 -- -- 100
2020-01-24 02:00:00 7.5 11 Sudeste 23 Sudeste 0 -- -- 100
2020-01-24 01:00:00 7.4 12 Sudeste 26 Este 0.2 -- -- 100
2020-01-24 00:00:00 7.5 15 Este 28 Este 0 -- -- 100
2020-01-23 23:00:00 7.6 19 Este 28 Este 0.4 -- -- 100
2020-01-23 22:00:00 7.5 15 Sudeste 24 Este 0.6 -- -- 100
2020-01-23 21:00:00 7.4 7 Sudeste 26 Sudeste 1 -- -- 99
2020-01-23 20:00:00 7.9 17 Sudeste 31 Este 0 -- -- 99
2020-01-23 19:00:00 8.1 16 Sudeste 39 Sudeste 0 -- -- 99
2020-01-23 18:00:00 8.2 18 Sudeste 34 Este 0 -- -- 99
2020-01-23 17:00:00 8.3 17 Sudeste 35 Sudeste 0 -- -- 99
2020-01-23 16:00:00 8.3 19 Sudeste 36 Este 0.4 -- -- 99
2020-01-23 15:00:00 7.8 19 Este 37 Este 0.8 -- -- 98
2020-01-23 14:00:00 7.7 18 Sudeste 31 Este 0.8 -- -- 98
2020-01-23 13:00:00 7.4 20 Este 31 Este 0.4 -- -- 97
2020-01-23 12:00:00 7.2 15 Sudeste 31 Sudeste 0 -- -- 98
2020-01-23 11:00:00 6.8 15 Sudeste 31 Este 0.4 -- -- 99
2020-01-23 10:00:00 6.6 14 Sudeste 32 Este 0.2 -- -- 99
2020-01-23 09:00:00 6.4 18 Sudeste 31 Este 0 -- -- 99
2020-01-23 08:00:00 6.4 19 Este 34 Sudeste 1.2 -- -- 99
2020-01-23 07:00:00 6.5 19 Este 42 Este 0.8 -- -- 98
2020-01-23 06:00:00 6.6 19 Este 32 Este 0.4 -- -- 99
2020-01-23 05:00:00 6.6 17 Este 29 Este 1.8 -- -- 99
2020-01-23 04:00:00 6.5 12 Este 20 Este 1.8 -- -- 99
2020-01-23 03:00:00 6.3 6 Sudeste 13 Sudeste 1.4 -- -- 98
2020-01-23 02:00:00 6.4 6 Sudeste 13 Sudeste 0.4 -- -- 96
2020-01-23 01:00:00 6.5 7 Sudeste 14 Sudeste 0 -- -- 93
2020-01-23 00:00:00 6.5 6 Sudeste 10 Este 0 -- -- 92
2020-01-22 23:00:00 7 6 Sudeste 12 Sudeste 0 -- -- 89
2020-01-22 22:00:00 7.3 6 Sudeste 9 Sudeste 0 -- -- 86
2020-01-22 21:00:00 7.9 6 Este 14 Este 0 -- -- 80
2020-01-22 20:00:00 7.9 6 Este 15 Este 0 -- -- 83
2020-01-22 19:00:00 8 9 Este 15 Este 0 -- -- 83
2020-01-22 18:00:00 8.9 4 Este 10 Nordeste 0 -- -- 82
2020-01-22 17:00:00 9.1 6 Nordeste 17 Este 0 -- -- 86
2020-01-22 16:00:00 8 7 Este 23 Sudeste 0.2 -- -- 90
2020-01-22 15:00:00 7.9 9 Este 21 Este 0 -- -- 88
2020-01-22 14:00:00 7.2 13 Este 25 Sudeste 0.6 -- -- 94
2020-01-22 13:00:00 6.5 12 Este 27 Este 0.8 -- -- 96
2020-01-22 12:00:00 6.3 10 Este 32 Este 1.4 -- -- 97
2020-01-22 11:00:00 6.1 17 Este 30 Este 1 -- -- 96
2020-01-22 10:00:00 6.2 14 Este 34 Este 0.4 -- -- 95
2020-01-22 09:00:00 6.6 13 Este 21 Este 0 -- -- 87
2020-01-22 08:00:00 6.3 13 Este 32 Este 0 -- -- 88
2020-01-22 07:00:00 6.3 5 Sudeste 14 Nordeste 0 -- -- 84
2020-01-22 06:00:00 6.2 12 Nordeste 19 Nordeste 0 -- -- 82
2020-01-22 05:00:00 6.7 12 Nordeste 20 Nordeste 0 -- -- 80
2020-01-22 04:00:00 7.1 9 Nordeste 16 Este 0 -- -- 78
2020-01-22 03:00:00 6.7 8 Nordeste 18 Este 0 -- -- 79
2020-01-22 02:00:00 7 8 Norte 19 Este 0 -- -- 76
2020-01-22 01:00:00 7.1 11 Nordeste 27 Este 0 -- -- 75
2020-01-22 00:00:00 7.4 19 Este 32 Este 0 -- -- 74
2020-01-21 23:00:00 6.9 15 Nordeste 32 Este 0 -- -- 80
2020-01-21 22:00:00 6.8 12 Nordeste 22 Nordeste 0 -- -- 80
2020-01-21 21:00:00 7.7 15 Nordeste 31 Nordeste 0 -- -- 71
2020-01-21 20:00:00 8.3 17 Nordeste 30 Nordeste 0 -- -- 67
2020-01-21 19:00:00 8.3 12 Nordeste 30 Norte 0 -- -- 68
2020-01-21 18:00:00 8.7 19 Nordeste 34 Nordeste 0 -- -- 65
2020-01-21 17:00:00 8.8 19 Nordeste 38 Nordeste 0 -- -- 64
2020-01-21 16:00:00 9.3 20 Nordeste 33 Nordeste 0 -- -- 65
2020-01-21 15:00:00 9.8 19 Nordeste 44 Nordeste 0 -- -- 63
2020-01-21 14:00:00 9.7 23 Nordeste 43 Nordeste 0 -- -- 61
2020-01-21 13:00:00 8.9 23 Nordeste 39 Nordeste 0 -- -- 61
2020-01-21 12:00:00 9 24 Nordeste 40 Nordeste 0 -- -- 60
2020-01-21 11:00:00 7.7 22 Nordeste 43 Nordeste 0 -- -- 63
2020-01-21 10:00:00 6.3 27 Nordeste 38 Nordeste 0 -- -- 65
2020-01-21 09:00:00 4.5 15 Nordeste 28 Nordeste 0 -- -- 71
2020-01-21 08:00:00 4.8 14 Nordeste 34 Nordeste 0 -- -- 71
2020-01-21 07:00:00 4.9 26 Nordeste 44 Nordeste 0 -- -- 72
2020-01-21 06:00:00 5.1 16 Nordeste 29 Nordeste 0 -- -- 67
2020-01-21 05:00:00 5.3 17 Nordeste 27 Norte 0 -- -- 66
2020-01-21 04:00:00 5.1 12 Norte 25 Norte 0 -- -- 67
2020-01-21 03:00:00 5.6 10 Norte 23 Norte 0 -- -- 63
2020-01-21 02:00:00 4.9 8 Noroeste 18 Noroeste 0 -- -- 67
2020-01-21 01:00:00 5 4 Noroeste 22 Norte 0 -- -- 67
2020-01-21 00:00:00 4.9 5 Norte 18 Norte 0 -- -- 66
2020-01-20 23:00:00 4.8 6 Norte 19 Norte 0 -- -- 65
2020-01-20 22:00:00 5.3 12 Norte 23 Nordeste 0 -- -- 64
2020-01-20 21:00:00 5.3 5 Norte 19 Norte 0 -- -- 63
2020-01-20 20:00:00 5.4 10 Norte 28 Nordeste 0 -- -- 64
2020-01-20 19:00:00 5.3 12 Nordeste 30 Norte 0 -- -- 66
2020-01-20 18:00:00 4.8 10 Nordeste 43 Este 0 -- -- 72
2020-01-20 17:00:00 5.2 23 Nordeste 50 Nordeste 0 -- -- 73
2020-01-20 16:00:00 6.7 25 Nordeste 51 Nordeste 0 -- -- 61
2020-01-20 15:00:00 6.6 22 Nordeste 53 Nordeste 0 -- -- 58
2020-01-20 14:00:00 6.5 34 Nordeste 58 Nordeste 0 -- -- 52
2020-01-20 13:00:00 7 31 Nordeste 51 Nordeste 0 -- -- 42
2020-01-20 12:00:00 6.4 23 Norte 47 Norte 0 -- -- 42
2020-01-20 11:00:00 5.7 22 Norte 40 Nordeste 0 -- -- 46
2020-01-20 10:00:00 4.4 14 Nordeste 28 Nordeste 0 -- -- 47
2020-01-20 09:00:00 3.4 9 Norte 22 Norte 0 -- -- 51
2020-01-20 08:00:00 3.2 11 Norte 21 Norte 0 -- -- 54
2020-01-20 07:00:00 3.3 8 Norte 15 Norte 0 -- -- 56
2020-01-20 06:00:00 3.5 7 Oeste 18 Oeste 0 -- -- 56
2020-01-20 05:00:00 3.5 11 Oeste 24 Oeste 0 -- -- 59
2020-01-20 04:00:00 3.8 10 Oeste 18 Oeste 0 -- -- 55
2020-01-20 03:00:00 4.1 8 Oeste 21 Norte 0 -- -- 54
2020-01-20 02:00:00 4.8 9 Norte 22 Nordeste 0 -- -- 47
2020-01-20 01:00:00 4.5 6 Norte 25 Norte 0 -- -- 48
2020-01-20 00:00:00 4.6 18 Nordeste 31 Nordeste 0 -- -- 48
2020-01-19 23:00:00 4.3 15 Norte 22 Nordeste 0 -- -- 52
2020-01-19 22:00:00 4.6 6 Norte 20 Nordeste 0 -- -- 57
2020-01-19 21:00:00 5.9 3 Norte 22 Norte 0 -- -- 55
2020-01-19 20:00:00 7.2 12 Noroeste 22 Norte 0 -- -- 54
2020-01-19 19:00:00 9.4 8 Norte 24 Nordeste 0 -- -- 39
2020-01-19 18:00:00 10.9 18 Norte 37 Norte 0 -- -- 38
2020-01-19 17:00:00 11.9 18 Norte 37 Nordeste 0 -- -- 43
2020-01-19 16:00:00 11.1 17 Norte 42 Norte 0 -- -- 48
2020-01-19 15:00:00 12.1 24 Nordeste 42 Norte 0 -- -- 49
2020-01-19 14:00:00 12.4 16 Norte 42 Norte 0 -- -- 61
2020-01-19 13:00:00 10.9 22 Norte 42 Norte 0 -- -- 64
2020-01-19 12:00:00 9.9 20 Noroeste 38 Norte 0 -- -- 71
2020-01-19 11:00:00 8.6 14 Norte 30 Norte 0 -- -- 76
2020-01-19 10:00:00 5.4 8 Oeste 13 Noroeste 0 -- -- 99
2020-01-19 09:00:00 4.4 6 Oeste 11 Sudoeste 0 -- -- 99
2020-01-19 08:00:00 5 3 Nordeste 17 Noroeste 0 -- -- 98
2020-01-19 07:00:00 5.7 10 Noroeste 31 Noroeste 0 -- -- 98
2020-01-19 06:00:00 6.5 14 Noroeste 27 Oeste 0 -- -- 96
2020-01-19 05:00:00 5.7 6 Noroeste 17 Oeste 0 -- -- 95
2020-01-19 04:00:00 6.3 9 Noroeste 19 Oeste 0 -- -- 92
2020-01-19 03:00:00 6.7 12 Oeste 20 Oeste 0 -- -- 89
2020-01-19 02:00:00 7.5 12 Noroeste 31 Oeste 0 -- -- 86
2020-01-19 01:00:00 8.4 16 Noroeste 30 Oeste 0 -- -- 85
2020-01-19 00:00:00 9.1 14 Oeste 33 Oeste 0 -- -- 88
2020-01-18 23:00:00 10.3 18 Oeste 36 Noroeste 0 -- -- 84
2020-01-18 22:00:00 10.8 18 Oeste 50 Oeste 0 -- -- 80
2020-01-18 21:00:00 11.3 26 Oeste 46 Oeste 0 -- -- 87
2020-01-18 20:00:00 12 23 Oeste 37 Oeste 0 -- -- 90
2020-01-18 19:00:00 13 15 Oeste 30 Sudoeste 0 -- -- 91
2020-01-18 18:00:00 14.4 13 Sudoeste 28 Oeste 0 -- -- 84
2020-01-18 17:00:00 14.2 15 Oeste 27 Sudoeste 0 -- -- 92
2020-01-18 16:00:00 13.6 10 Sudoeste 19 Sudoeste 0 -- -- 95
2020-01-18 15:00:00 12.9 7 Sur 15 Sur 0 -- -- 100
2020-01-18 14:00:00 10.4 9 Sudeste 22 Sudeste 0.2 -- -- 100
2020-01-18 13:00:00 9.6 17 Sudeste 33 Sudeste 0 -- -- 100
2020-01-18 12:00:00 9 24 Sudeste 39 Sudeste 0.4 -- -- 100
2020-01-18 11:00:00 8.5 23 Sudeste 37 Sudeste 1 -- -- 100
2020-01-18 10:00:00 8.3 21 Sudeste 34 Sudeste 2.6 -- -- 100
2020-01-18 09:00:00 8.2 17 Sudeste 27 Sudeste 1.4 -- -- 100
2020-01-18 08:00:00 8 13 Sudeste 23 Sudeste 0.2 -- -- 99
2020-01-18 07:00:00 8 12 Sudeste 23 Sudeste 0.6 -- -- 98
2020-01-18 06:00:00 8.3 15 Sudeste 25 Sudeste 0 -- -- 98
2020-01-18 05:00:00 8.3 13 Sudeste 22 Sudeste 0 -- -- 99
2020-01-18 04:00:00 8.1 13 Sudeste 19 Sudeste 0.4 -- -- 98
2020-01-18 03:00:00 8.4 13 Sudeste 20 Sudeste 0 -- -- 96
2020-01-18 02:00:00 8.8 12 Sudeste 15 Sudeste 0 -- -- 94
2020-01-18 01:00:00 9.1 4 Sudeste 6 Sudeste 0 -- -- 92
2020-01-18 00:00:00 9.6 3 Sudeste 9 Sudoeste 0 -- -- 90
2020-01-17 23:00:00 9.1 5 Sudoeste 9 Este 0 -- -- 94
2020-01-17 22:00:00 9.2 6 Sudeste 8 Sudeste 0 -- -- 91
2020-01-17 21:00:00 10 4 Sudoeste 8 Sudoeste 0 -- -- 89
2020-01-17 20:00:00 10.1 5 Sudoeste 12 Sudoeste 0 -- -- 89
2020-01-17 19:00:00 10.3 6 Sudoeste 12 Sudoeste 0 -- -- 87
2020-01-17 18:00:00 11.5 4 Sudoeste 14 Oeste 0 -- -- 80
2020-01-17 17:00:00 12.7 0 Calma 6 Oeste 0 -- -- 73
2020-01-17 16:00:00 12.5 4 Oeste 18 Oeste 0 -- -- 75
2020-01-17 15:00:00 13.7 11 Oeste 23 Noroeste 0 -- -- 70
2020-01-17 14:00:00 12.2 11 Oeste 19 Oeste 0 -- -- 79
2020-01-17 13:00:00 10.8 13 Oeste 20 Sudoeste 0 -- -- 92
2020-01-17 12:00:00 10.1 9 Oeste 18 Sudoeste 0 -- -- 96
2020-01-17 11:00:00 9.7 10 Sudoeste 18 Sudoeste 0 -- -- 96
2020-01-17 10:00:00 9.2 3 Sur 13 Oeste 0 -- -- 96
2020-01-17 09:00:00 8.8 9 Oeste 18 Sudoeste 0 -- -- 97
2020-01-17 08:00:00 9 10 Oeste 18 Oeste 0 -- -- 97
2020-01-17 07:00:00 9.2 5 Oeste 9 Oeste 0 -- -- 98
2020-01-17 06:00:00 9.3 4 Oeste 13 Sudoeste 0 -- -- 98
2020-01-17 05:00:00 9.8 6 Sudoeste 14 Sudoeste 0 -- -- 98
2020-01-17 04:00:00 9.7 5 Sudoeste 13 Sudoeste 0 -- -- 97
2020-01-17 03:00:00 9.8 4 Sudoeste 14 Sudoeste 0 -- -- 97
2020-01-17 02:00:00 9.8 7 Sudoeste 17 Sudoeste 0 -- -- 97
2020-01-17 01:00:00 9.5 9 Sur 25 Sudoeste 0 -- -- 95
2020-01-17 00:00:00 9.8 15 Sur 25 Sur 0 -- -- 86
2020-01-16 23:00:00 10 18 Sur 32 Sudoeste 0.2 -- -- 83
2020-01-16 22:00:00 11.8 16 Sur 37 Sur 0 -- -- 58
2020-01-16 21:00:00 12.2 19 Sur 33 Sur 0 -- -- 55
2020-01-16 20:00:00 12.2 18 Sur 29 Sur 0 -- -- 55
2020-01-16 19:00:00 11.3 6 Sudeste 21 Sur 0 -- -- 58
2020-01-16 18:00:00 13.9 12 Sudoeste 30 Sur 0 -- -- 49
2020-01-16 17:00:00 14.7 18 Sudoeste 35 Sudoeste 0 -- -- 47
2020-01-16 16:00:00 15.7 23 Sudoeste 37 Sur 0 -- -- 48
2020-01-16 15:00:00 15.9 18 Sur 32 Sur 0 -- -- 56
2020-01-16 14:00:00 14.9 15 Sudeste 30 Sudeste 0 -- -- 63
2020-01-16 13:00:00 13.2 17 Sudeste 28 Sudeste 0 -- -- 78
2020-01-16 12:00:00 12 14 Sudeste 27 Sudeste 0 -- -- 87
2020-01-16 11:00:00 9.2 16 Sudeste 24 Sudeste 0 -- -- 100
2020-01-16 10:00:00 8.6 14 Sudeste 21 Sudeste 0 -- -- 100
2020-01-16 09:00:00 7.4 15 Sudeste 21 Sudeste 0.2 -- -- 100
2020-01-16 08:00:00 7.7 13 Sudeste 20 Sudeste 0 -- -- 100
2020-01-16 07:00:00 7.9 9 Sudeste 16 Sudeste 0 -- -- 99
2020-01-16 06:00:00 8.7 9 Sudeste 15 Sudeste 0 -- -- 99
2020-01-16 05:00:00 9 10 Sudeste 21 Sudeste 0 -- -- 99
2020-01-16 04:00:00 9.4 16 Sudeste 26 Sudeste 0 -- -- 99
2020-01-16 03:00:00 9.6 13 Sudeste 18 Sudeste 0 -- -- 98
2020-01-16 02:00:00 9.8 9 Sudeste 17 Sudeste 0 -- -- 98
2020-01-16 01:00:00 9.8 11 Sudeste 20 Sudeste 0 -- -- 98
2020-01-16 00:00:00 9.9 10 Sudeste 16 Sudeste 0 -- -- 96
2020-01-15 23:00:00 9.8 8 Sudeste 18 Este 0 -- -- 96
2020-01-15 22:00:00 9.5 11 Sudeste 23 Sudeste 0 -- -- 96
2020-01-15 21:00:00 10.5 16 Sudeste 26 Sur 0 -- -- 96
2020-01-15 20:00:00 9.6 11 Sudeste 21 Sudeste 0 -- -- 95
2020-01-15 19:00:00 10.1 13 Sudeste 24 Sudeste 0 -- -- 94
2020-01-15 18:00:00 10.8 14 Sudeste 22 Sudeste 0 -- -- 89
2020-01-15 17:00:00 11.3 16 Sudeste 24 Sudeste 0 -- -- 87
2020-01-15 16:00:00 11.7 14 Sudeste 25 Sudeste 0 -- -- 87
2020-01-15 15:00:00 10.7 17 Sudeste 26 Sudeste 0 -- -- 89
2020-01-15 14:00:00 9.7 17 Sudeste 27 Sudeste 0 -- -- 91
2020-01-15 13:00:00 9.5 19 Sudeste 32 Sudeste 0 -- -- 89
2020-01-15 12:00:00 8.7 20 Sudeste 38 Sudeste 0 -- -- 89
2020-01-15 11:00:00 8.4 18 Sudeste 27 Sudeste 0 -- -- 88
2020-01-15 10:00:00 7.2 15 Sudeste 32 Sudeste 0 -- -- 90
2020-01-15 09:00:00 6.4 17 Sudeste 28 Sudeste 0 -- -- 92
2020-01-15 08:00:00 6.3 18 Sudeste 31 Sudeste 0 -- -- 93
2020-01-15 07:00:00 6.1 19 Sudeste 30 Sudeste 0 -- -- 93
2020-01-15 06:00:00 5.9 21 Sudeste 31 Sudeste 0 -- -- 93
2020-01-15 05:00:00 5.7 15 Sudeste 25 Sudeste 0 -- -- 94
2020-01-15 04:00:00 5.3 8 Sudeste 28 Sudeste 0 -- -- 94
2020-01-15 03:00:00 6 15 Sudeste 21 Sudeste 0 -- -- 92
2020-01-15 02:00:00 6.6 15 Sudeste 23 Sudeste 0 -- -- 91
2020-01-15 01:00:00 6.8 10 Sudeste 22 Sur 0 -- -- 90
2020-01-15 00:00:00 7.6 14 Sudeste 24 Sudeste 0 -- -- 87
2020-01-14 23:00:00 8.5 15 Sudeste 29 Sur 0 -- -- 83
2020-01-14 22:00:00 8.9 16 Sur 27 Sur 0 -- -- 82
2020-01-14 21:00:00 8.4 15 Sudeste 22 Sudeste 0 -- -- 87
2020-01-14 20:00:00 8.6 13 Sudeste 19 Sudeste 0 -- -- 86
2020-01-14 19:00:00 8.5 11 Sudeste 19 Sudeste 0 -- -- 86
2020-01-14 18:00:00 8.8 12 Sudeste 26 Sur 0 -- -- 85
2020-01-14 17:00:00 9.5 17 Sur 27 Sur 0 -- -- 81
2020-01-14 16:00:00 9.9 14 Sudeste 24 Sudeste 0 -- -- 74
2020-01-14 15:00:00 9.7 17 Sudeste 27 Sudeste 0 -- -- 74
2020-01-14 14:00:00 9.9 14 Sudeste 28 Sudeste 0 -- -- 72
2020-01-14 13:00:00 9.2 21 Sudeste 31 Sudeste 0 -- -- 74
2020-01-14 12:00:00 7.2 19 Sudeste 28 Sudeste 0 -- -- 81
2020-01-14 11:00:00 6.3 18 Sudeste 28 Sudeste 0 -- -- 86
2020-01-14 10:00:00 4.2 18 Sudeste 25 Sudeste 0 -- -- 94
2020-01-14 09:00:00 2.9 17 Sudeste 23 Sudeste 0 -- -- 97
2020-01-14 08:00:00 2.8 13 Sudeste 22 Sudeste 0 -- -- 96
2020-01-14 07:00:00 3.3 15 Sudeste 21 Sudeste 0 -- -- 93
2020-01-14 06:00:00 3.9 12 Sudeste 16 Sudeste 0 -- -- 90
2020-01-14 05:00:00 3.1 7 Sudeste 11 Sudeste 0 -- -- 93
2020-01-14 04:00:00 3.5 8 Sudeste 10 Sudeste 0 -- -- 90
2020-01-14 03:00:00 4.1 8 Sudeste 10 Sudeste 0 -- -- 87
2020-01-14 02:00:00 4.8 5 Sudeste 6 Sudeste 0 -- -- 85
2020-01-14 01:00:00 5.2 4 Sudeste 5 Sudeste 0 -- -- 83
2020-01-14 00:00:00 5 3 Sudeste 5 Sudeste 0 -- -- 83
2020-01-13 23:00:00 5.1 4 Sudeste 8 Sudeste 0 -- -- 83
2020-01-13 22:00:00 5.6 0 Calma 3 Sur 0 -- -- 80
2020-01-13 21:00:00 5.4 2 Sur 10 Sudeste 0 -- -- 80
2020-01-13 20:00:00 5.8 4 Sudeste 12 Sur 0 -- -- 76
2020-01-13 19:00:00 6.9 5 Sur 11 Sur 0 -- -- 69
2020-01-13 18:00:00 8.9 6 Sudoeste 15 Sudoeste 0 -- -- 67
2020-01-13 17:00:00 10.5 9 Sudoeste 21 Sudoeste 0 -- -- 61
2020-01-13 16:00:00 11.1 13 Sudoeste 22 Sudoeste 0 -- -- 56
2020-01-13 15:00:00 11.4 12 Sudoeste 22 Sur 0 -- -- 60
2020-01-13 14:00:00 10.4 6 Sudeste 16 Sudeste 0 -- -- 68
2020-01-13 13:00:00 8.8 10 Sudeste 21 Sudeste 0 -- -- 74
2020-01-13 12:00:00 6.4 16 Sudeste 23 Sudeste 0 -- -- 84
2020-01-13 11:00:00 5.4 17 Sudeste 23 Sudeste 0 -- -- 85
2020-01-13 10:00:00 3.6 17 Sudeste 23 Sudeste 0 -- -- 92
2020-01-13 09:00:00 2.7 13 Sudeste 19 Sudeste 0 -- -- 92
2020-01-13 08:00:00 2.6 13 Sudeste 21 Sudeste 0 -- -- 93
2020-01-13 07:00:00 2.5 9 Sudeste 14 Sudeste 0 -- -- 91
2020-01-13 06:00:00 3.3 11 Sudeste 14 Sudeste 0 -- -- 87
2020-01-13 05:00:00 3.5 10 Sudeste 14 Sudeste 0 -- -- 85
2020-01-13 04:00:00 4.1 10 Sudeste 14 Sudeste 0 -- -- 84
2020-01-13 03:00:00 4.6 9 Sudeste 11 Sudeste 0 -- -- 81
2020-01-13 02:00:00 4.6 8 Sudeste 12 Sudeste 0 -- -- 80
2020-01-13 01:00:00 5.4 8 Sudeste 10 Sudeste 0 -- -- 72
2020-01-13 00:00:00 5.9 6 Sudeste 6 Sudeste 0 -- -- 71
2020-01-12 23:00:00 5.9 0 Calma 3 Norte 0 -- -- 68
2020-01-12 22:00:00 6.8 -- -- -- -- 0 -- -- 65
2020-01-12 21:00:00 6.6 0 Calma -- -- 0 -- -- 69
2020-01-12 20:00:00 7.3 3 Noroeste 4 Sudoeste 0 -- -- 71
2020-01-12 19:00:00 8.7 3 Oeste 6 Oeste 0 -- -- 69
2020-01-12 18:00:00 11.6 5 Noroeste 8 Noroeste 0 -- -- 57
2020-01-12 17:00:00 12.7 7 Noroeste 11 Oeste 0 -- -- 52
2020-01-12 16:00:00 12.5 3 Norte 12 Noroeste 0 -- -- 47
2020-01-12 15:00:00 12.5 6 Noroeste 12 Noroeste 0 -- -- 51
2020-01-12 14:00:00 12.2 4 Noroeste 10 Noroeste 0 -- -- 56
2020-01-12 13:00:00 12.1 5 Sudeste 12 Sudeste 0 -- -- 59
2020-01-12 12:00:00 9.3 10 Sudeste 16 Sudeste 0 -- -- 71
2020-01-12 11:00:00 8.2 11 Sudeste 15 Sudeste 0 -- -- 70
2020-01-12 10:00:00 6 9 Sudeste 14 Sudeste 0 -- -- 76
2020-01-12 09:00:00 3 8 Sudeste 9 Sudeste 0 -- -- 83
2020-01-12 08:00:00 2.7 4 Sur 5 Sur 0 -- -- 83
2020-01-12 07:00:00 2.8 0 Calma 5 Sudoeste 0 -- -- 82
2020-01-12 06:00:00 3 3 Sudoeste 6 Oeste 0 -- -- 84
2020-01-12 05:00:00 2.2 5 Oeste 6 Oeste 0 -- -- 86
2020-01-12 04:00:00 3.5 3 Oeste 7 Noroeste 0 -- -- 81
2020-01-12 03:00:00 4.1 4 Oeste 5 Oeste 0 -- -- 79
2020-01-12 02:00:00 3.8 2 Noroeste 6 Noroeste 0 -- -- 81
2020-01-12 01:00:00 4 4 Noroeste 5 Noroeste 0 -- -- 80
2020-01-12 00:00:00 3.9 3 Noroeste 6 Noroeste 0 -- -- 80
2020-01-11 23:00:00 3.9 5 Noroeste 9 Oeste 0 -- -- 81
2020-01-11 22:00:00 4.5 6 Noroeste 9 Oeste 0 -- -- 78
2020-01-11 21:00:00 5.4 3 Noroeste 10 Nordeste 0 -- -- 73
2020-01-11 20:00:00 6.6 6 Nordeste 8 Nordeste 0 -- -- 69
2020-01-11 19:00:00 8.4 3 Noroeste 9 Norte 0 -- -- 64
2020-01-11 18:00:00 11 6 Nordeste 9 Norte 0 -- -- 56
2020-01-11 17:00:00 13.7 2 Sudoeste 14 Sudeste 0 -- -- 49
2020-01-11 16:00:00 13.1 4 Este 14 Sudeste 0 -- -- 50
2020-01-11 15:00:00 13.4 6 Sudeste 14 Sudeste 0 -- -- 51
2020-01-11 14:00:00 12.6 6 Sudeste 17 Sudeste 0 -- -- 53
2020-01-11 13:00:00 11.2 9 Sudeste 15 Sudeste 0 -- -- 57
2020-01-11 12:00:00 7.6 3 Noroeste 5 Noroeste 0 -- -- 75
2020-01-11 11:00:00 4.9 5 Noroeste 6 Noroeste 0 -- -- 83
2020-01-11 10:00:00 2.6 3 Oeste 8 Noroeste 0 -- -- 91
2020-01-11 09:00:00 0.8 5 Sudoeste 8 Oeste 0 -- -- 94
2020-01-11 08:00:00 0.7 4 Oeste 6 Oeste 0 -- -- 95
2020-01-11 07:00:00 0.6 6 Oeste 9 Noroeste 0 -- -- 95
2020-01-11 06:00:00 1.3 6 Noroeste 10 Noroeste 0 -- -- 92
2020-01-11 05:00:00 1.8 5 Noroeste 7 Noroeste 0 -- -- 89
2020-01-11 04:00:00 2.3 4 Noroeste 13 Norte 0 -- -- 88
2020-01-11 03:00:00 3.2 10 Norte 13 Norte 0 -- -- 85
2020-01-11 02:00:00 2 7 Oeste 10 Noroeste 0 -- -- 90
2020-01-11 01:00:00 2.7 6 Oeste 11 Oeste 0 -- -- 88
2020-01-11 00:00:00 3.5 6 Oeste 8 Oeste 0 -- -- 86
2020-01-10 23:00:00 3.8 6 Oeste 9 Sudoeste 0 -- -- 85
2020-01-10 22:00:00 5.1 4 Norte 15 Nordeste 0 -- -- 80
2020-01-10 21:00:00 7.2 10 Nordeste 21 Nordeste 0 -- -- 71
2020-01-10 20:00:00 7.6 13 Nordeste 19 Nordeste 0 -- -- 70
2020-01-10 19:00:00 8.1 10 Nordeste 15 Norte 0 -- -- 70
2020-01-10 18:00:00 10.6 9 Norte 19 Nordeste 0 -- -- 59
2020-01-10 17:00:00 12.1 13 Norte 23 Norte 0 -- -- 50
2020-01-10 16:00:00 12.1 9 Norte 27 Norte 0 -- -- 58
2020-01-10 15:00:00 11.3 10 Nordeste 22 Nordeste 0 -- -- 62
2020-01-10 14:00:00 10.4 9 Nordeste 19 Norte 0 -- -- 74
2020-01-10 13:00:00 9.1 9 Norte 15 Norte 0 -- -- 79
2020-01-10 12:00:00 8.4 6 Norte 20 Norte 0 -- -- 81
2020-01-10 11:00:00 6.1 13 Nordeste 19 Norte 0 -- -- 79
2020-01-10 10:00:00 2.9 7 Norte 17 Noroeste 0 -- -- 90
2020-01-10 09:00:00 2.4 12 Norte 18 Norte 0 -- -- 91
2020-01-10 08:00:00 1.7 8 Noroeste 17 Noroeste 0 -- -- 94
2020-01-10 07:00:00 2.1 11 Noroeste 23 Oeste 0 -- -- 95
2020-01-10 06:00:00 2.9 14 Oeste 22 Oeste 0 -- -- 97
2020-01-10 05:00:00 3.8 8 Oeste 14 Oeste 0 -- -- 95
2020-01-10 04:00:00 4.5 8 Oeste 16 Oeste 0 -- -- 96
2020-01-10 03:00:00 5.3 5 Oeste 12 Oeste 0 -- -- 97
2020-01-10 02:00:00 6.1 7 Oeste 16 Noroeste 0 -- -- 96
2020-01-10 01:00:00 7.3 9 Noroeste 17 Noroeste 0 -- -- 95
2020-01-10 00:00:00 7.6 8 Oeste 14 Oeste 0 -- -- 94
2020-01-09 23:00:00 8.7 8 Oeste 12 Sudoeste 0 -- -- 94
2020-01-09 22:00:00 9.3 6 Oeste 14 Oeste 0 -- -- 90
2020-01-09 21:00:00 8.4 8 Noroeste 10 Noroeste 0 -- -- 89
2020-01-09 20:00:00 8.1 0 Calma 9 Sudoeste 0 -- -- 90
2020-01-09 19:00:00 9.3 9 Sudoeste 15 Sudoeste 0 -- -- 88
2020-01-09 18:00:00 11.2 6 Sudoeste 10 Sudoeste 0 -- -- 81
2020-01-09 17:00:00 13.4 5 Oeste 13 Oeste 0 -- -- 72
2020-01-09 16:00:00 13.3 9 Noroeste 14 Noroeste 0 -- -- 71
2020-01-09 15:00:00 12.9 5 Noroeste 11 Oeste 0 -- -- 65
2020-01-09 14:00:00 11.2 4 Noroeste 10 Noroeste 0 -- -- 78
2020-01-09 13:00:00 6.6 5 Sudoeste 10 Oeste 0 -- -- 100
2020-01-09 12:00:00 4.3 4 Oeste 9 Noroeste 0 -- -- 100
2020-01-09 11:00:00 3.7 5 Noroeste 7 Noroeste 0 -- -- 100
2020-01-09 10:00:00 1.5 0 Calma 7 Oeste 0 -- -- 100
2020-01-09 09:00:00 1.4 3 Noroeste 12 Noroeste 0 -- -- 100
2020-01-09 08:00:00 2.3 3 Oeste 6 Oeste 0 -- -- 100
2020-01-09 07:00:00 3.2 3 Noroeste 6 Noroeste 0 -- -- 100
2020-01-09 06:00:00 4.1 3 Oeste 5 Oeste 0 -- -- 99
2020-01-09 05:00:00 4.5 0 Calma 5 Sudeste 0.2 -- -- 99
2020-01-09 04:00:00 4.4 0 Calma 6 Oeste 0 -- -- 99
2020-01-09 03:00:00 4 3 Oeste 5 Oeste 0 -- -- 100
2020-01-09 02:00:00 3.2 5 Oeste 9 Oeste 0 -- -- 98
2020-01-09 01:00:00 5 3 Oeste 5 Oeste 0 -- -- 99
2020-01-09 00:00:00 5.2 4 Oeste 6 Oeste 0 -- -- 97
2020-01-08 23:00:00 5.1 6 Noroeste 8 Noroeste 0 -- -- 96
2020-01-08 22:00:00 6 5 Noroeste 6 Oeste 0 -- -- 92
2020-01-08 21:00:00 6.8 6 Oeste 7 Oeste 0 -- -- 89
2020-01-08 20:00:00 7.9 5 Oeste -- -- 0 -- -- 85
2020-01-08 19:00:00 9.3 2 Oeste 9 Oeste 0 -- -- 80
2020-01-08 18:00:00 12.1 7 Oeste 11 Oeste 0 -- -- 69
2020-01-08 17:00:00 14 6 Noroeste 9 Noroeste 0 -- -- 62
2020-01-08 16:00:00 14.2 5 Noroeste 11 Noroeste 0 -- -- 59
2020-01-08 15:00:00 14.2 2 Sudeste 9 Sur 0 -- -- 66
2020-01-08 14:00:00 13.6 4 Sur 8 Sudeste 0 -- -- 71
2020-01-08 13:00:00 11.3 3 Sur 10 Sudeste 0 -- -- 75
2020-01-08 12:00:00 9.1 4 Sudeste 9 Sur 0 -- -- 87
2020-01-08 11:00:00 6.5 0 Calma 4 Oeste 0 -- -- 99
2020-01-08 10:00:00 4.6 2 Oeste 8 Sudeste 0 -- -- 97
2020-01-08 09:00:00 4.3 7 Sudeste 12 Sudeste 0 -- -- 99
2020-01-08 08:00:00 3.8 10 Sudeste 14 Sudeste 0 -- -- 96
2020-01-08 07:00:00 5.1 8 Sudeste 9 Sudeste 0 -- -- 91
2020-01-08 06:00:00 5.7 0 Calma 2 Oeste 0 -- -- 99
2020-01-08 05:00:00 5.5 0 Calma 3 Norte 0 -- -- 100
2020-01-08 04:00:00 4.6 2 Oeste 6 Noroeste 0 -- -- 100
2020-01-08 03:00:00 4.9 0 Calma 5 Noroeste 0.2 -- -- 100
2020-01-08 02:00:00 5.2 5 Oeste 8 Noroeste 0 -- -- 100
2020-01-08 01:00:00 5.1 6 Noroeste 7 Noroeste 0 -- -- 98
2020-01-08 00:00:00 5.9 6 Noroeste 7 Noroeste 0 -- -- 97
2020-01-07 23:00:00 6.3 6 Oeste 8 Oeste 0 -- -- 96
2020-01-07 22:00:00 6.4 7 Oeste 9 Oeste 0 -- -- 90
2020-01-07 21:00:00 6.6 6 Oeste 8 Oeste 0 -- -- 85
2020-01-07 20:00:00 7.8 5 Oeste 9 Noroeste 0 -- -- 82
2020-01-07 19:00:00 9 7 Noroeste 10 Oeste 0 -- -- 77
2020-01-07 18:00:00 12.8 7 Noroeste 13 Oeste 0 -- -- 66
2020-01-07 17:00:00 15.5 6 Oeste 10 Oeste 0 -- -- 59
2020-01-07 16:00:00 15.3 5 Noroeste 9 Noroeste 0 -- -- 60
2020-01-07 15:00:00 14.4 5 Oeste 10 Noroeste 0 -- -- 65
2020-01-07 14:00:00 13.2 6 Noroeste 10 Oeste 0 -- -- 69
2020-01-07 13:00:00 11.9 3 Noroeste 8 Noroeste 0 -- -- 73
2020-01-07 12:00:00 10.6 2 Sur 6 Sudeste 0 -- -- 78
2020-01-07 11:00:00 7.6 0 Calma 5 Sudoeste 0 -- -- 89
2020-01-07 10:00:00 6.5 5 Sudeste 13 Sudeste 0 -- -- 95
2020-01-07 09:00:00 3.6 3 Sur 6 Oeste 0 -- -- 99
2020-01-07 08:00:00 3 5 Noroeste 9 Noroeste 0 -- -- 99
2020-01-07 07:00:00 2.5 5 Oeste 6 Noroeste 0 -- -- 99
2020-01-07 06:00:00 2.9 5 Noroeste 8 Noroeste 0 -- -- 98
2020-01-07 05:00:00 3.3 5 Oeste 6 Oeste 0 -- -- 98
2020-01-07 04:00:00 3.8 4 Oeste 5 Oeste 0 -- -- 97
2020-01-07 03:00:00 4 3 Oeste 7 Noroeste 0 -- -- 95
2020-01-07 02:00:00 5.1 4 Noroeste 6 Noroeste 0 -- -- 88
2020-01-07 01:00:00 5.9 0 Calma 5 Norte 0 -- -- 85
2020-01-07 00:00:00 5.2 3 Norte 5 Noroeste 0 -- -- 97
2020-01-06 23:00:00 4.9 4 Noroeste 9 Noroeste 0 -- -- 96
2020-01-06 22:00:00 5.2 4 Sudoeste 8 Oeste 0 -- -- 95
2020-01-06 21:00:00 5.8 3 Noroeste 9 Noroeste 0 -- -- 93
2020-01-06 20:00:00 7 5 Noroeste 12 Noroeste 0 -- -- 89
2020-01-06 19:00:00 9.7 2 Norte 5 Noroeste 0 -- -- 80
2020-01-06 18:00:00 12.1 4 Noroeste 11 Noroeste 0 -- -- 68
2020-01-06 17:00:00 14.3 7 Noroeste 11 Noroeste 0 -- -- 60
2020-01-06 16:00:00 14.5 5 Noroeste 10 Oeste 0 -- -- 58
2020-01-06 15:00:00 13.7 5 Noroeste 9 Noroeste 0 -- -- 62
2020-01-06 14:00:00 12.6 3 Oeste 9 Noroeste 0 -- -- 64
2020-01-06 13:00:00 10.9 2 Noroeste 9 Oeste 0 -- -- 71
2020-01-06 12:00:00 9.1 2 Noroeste 5 Noroeste 0 -- -- 84
2020-01-06 11:00:00 5.5 3 Noroeste 6 Noroeste 0 -- -- 95
2020-01-06 10:00:00 3.2 2 Oeste 6 Noroeste 0 -- -- 100